sensor_id;sensor_type;location;lat;lon;timestamp;pressure;altitude;pressure_sealevel;temperature;humidity
57799;BME280;43626;53.866;30.298;2023-08-06T00:00:37;1021.4;;;24.2;63.6
57799;BME280;43626;53.866;30.298;2023-08-06T00:05:51;1021.4;;;24.1;63.7
57799;BME280;43626;53.866;30.298;2023-08-06T00:11:01;1021.3;;;24.1;63.8
57799;BME280;43626;53.866;30.298;2023-08-06T00:15:37;1021.3;;;24.1;63.8
57799;BME280;43626;53.866;30.298;2023-08-06T00:20:29;1021.3;;;24;63.8
57799;BME280;43626;53.866;30.298;2023-08-06T00:26:01;1021.3;;;24;63.7
57799;BME280;43626;53.866;30.298;2023-08-06T00:30:23;1021.3;;;24;63.7
57799;BME280;43626;53.866;30.298;2023-08-06T00:35:39;1021.3;;;23.9;63.7
57799;BME280;43626;53.866;30.298;2023-08-06T00:40:29;1021.3;;;23.9;63.8
57799;BME280;43626;53.866;30.298;2023-08-06T00:45:51;1021.3;;;23.9;63.8
57799;BME280;43626;53.866;30.298;2023-08-06T00:50:31;1021.2;;;23.8;64.1
57799;BME280;43626;53.866;30.298;2023-08-06T00:55:29;1021.2;;;23.8;64.3
57799;BME280;43626;53.866;30.298;2023-08-06T01:01:01;1021.1;;;23.7;64.5
57799;BME280;43626;53.866;30.298;2023-08-06T01:05:51;1021.1;;;23.7;64.6
57799;BME280;43626;53.866;30.298;2023-08-06T01:10:39;1021.2;;;23.7;64.7
57799;BME280;43626;53.866;30.298;2023-08-06T01:15:41;1021.1;;;23.6;64.8
57799;BME280;43626;53.866;30.298;2023-08-06T01:21:01;1021.1;;;23.6;64.8
57799;BME280;43626;53.866;30.298;2023-08-06T01:25:39;1021.1;;;23.6;64.8
57799;BME280;43626;53.866;30.298;2023-08-06T01:30:31;1021.1;;;23.5;64.8
57799;BME280;43626;53.866;30.298;2023-08-06T01:36:01;1021.1;;;23.5;65
57799;BME280;43626;53.866;30.298;2023-08-06T01:40:51;1021;;;23.5;65.1
57799;BME280;43626;53.866;30.298;2023-08-06T01:46:01;1021;;;23.5;65.1
57799;BME280;43626;53.866;30.298;2023-08-06T01:50:51;1021;;;23.4;65.6
57799;BME280;43626;53.866;30.298;2023-08-06T01:55:29;1020.9;;;23.4;65.7
57799;BME280;43626;53.866;30.298;2023-08-06T02:00:29;1020.9;;;23.4;65.9
57799;BME280;43626;53.866;30.298;2023-08-06T02:06:01;1020.9;;;23.4;65.9
57799;BME280;43626;53.866;30.298;2023-08-06T02:10:51;1020.9;;;23.4;65.9
57799;BME280;43626;53.866;30.298;2023-08-06T02:15:49;1020.9;;;23.4;65.8
57799;BME280;43626;53.866;30.298;2023-08-06T02:21:01;1020.9;;;23.4;65.8
57799;BME280;43626;53.866;30.298;2023-08-06T02:25:53;1020.9;;;23.4;65.7
57799;BME280;43626;53.866;30.298;2023-08-06T02:30:23;1020.9;;;23.4;65.7
57799;BME280;43626;53.866;30.298;2023-08-06T02:35:29;1020.9;;;23.4;65.7
57799;BME280;43626;53.866;30.298;2023-08-06T02:41:02;1020.9;;;23.4;65.7
57799;BME280;43626;53.866;30.298;2023-08-06T02:46:01;1020.9;;;23.4;65.9
57799;BME280;43626;53.866;30.298;2023-08-06T02:51:01;1020.9;;;23.4;66
57799;BME280;43626;53.866;30.298;2023-08-06T02:56:01;1020.9;;;23.4;66
57799;BME280;43626;53.866;30.298;2023-08-06T03:00:25;1020.9;;;23.4;66
57799;BME280;43626;53.866;30.298;2023-08-06T03:06:01;1020.9;;;23.5;66
57799;BME280;43626;53.866;30.298;2023-08-06T03:10:25;1020.8;;;23.5;65.8
57799;BME280;43626;53.866;30.298;2023-08-06T03:16:01;1020.8;;;23.6;65.7
57799;BME280;43626;53.866;30.298;2023-08-06T03:20:47;1020.8;;;23.6;65.6
57799;BME280;43626;53.866;30.298;2023-08-06T03:25:35;1020.8;;;23.7;65.5
57799;BME280;43626;53.866;30.298;2023-08-06T03:31:01;1020.8;;;23.8;65.4
57799;BME280;43626;53.866;30.298;2023-08-06T03:35:23;1020.9;;;23.8;65.3
57799;BME280;43626;53.866;30.298;2023-08-06T03:40:29;1020.9;;;23.8;65.5
57799;BME280;43626;53.866;30.298;2023-08-06T03:45:47;1020.9;;;23.8;65.5
57799;BME280;43626;53.866;30.298;2023-08-06T03:50:45;1020.9;;;23.9;65.2
57799;BME280;43626;53.866;30.298;2023-08-06T03:55:47;1020.9;;;24;65
57799;BME280;43626;53.866;30.298;2023-08-06T04:00:57;1020.9;;;24.1;65.2
57799;BME280;43626;53.866;30.298;2023-08-06T04:05:45;1020.9;;;24.1;65.1
57799;BME280;43626;53.866;30.298;2023-08-06T04:10:37;1020.9;;;24.3;64.7
57799;BME280;43626;53.866;30.298;2023-08-06T04:15:49;1020.8;;;24.3;64.6
57799;BME280;43626;53.866;30.298;2023-08-06T04:20:23;1020.8;;;24.5;64.4
57799;BME280;43626;53.866;30.298;2023-08-06T04:25:23;1020.8;;;24.5;64.3
57799;BME280;43626;53.866;30.298;2023-08-06T04:30:47;1020.8;;;24.6;64.3
57799;BME280;43626;53.866;30.298;2023-08-06T04:36:01;1020.7;;;24.6;64.3
57799;BME280;43626;53.866;30.298;2023-08-06T04:40:41;1020.7;;;24.7;64.1
57799;BME280;43626;53.866;30.298;2023-08-06T04:45:23;1020.6;;;24.8;63.8
57799;BME280;43626;53.866;30.298;2023-08-06T04:50:47;1020.5;;;24.8;63.5
57799;BME280;43626;53.866;30.298;2023-08-06T04:55:37;1020.5;;;24.8;63.7
57799;BME280;43626;53.866;30.298;2023-08-06T05:00:37;1020.5;;;24.9;63.3
57799;BME280;43626;53.866;30.298;2023-08-06T05:05:51;1020.5;;;25.1;63.3
57799;BME280;43626;53.866;30.298;2023-08-06T05:11:01;1020.5;;;25.1;63.1
57799;BME280;43626;53.866;30.298;2023-08-06T05:15:31;1020.5;;;25.1;63.1
57799;BME280;43626;53.866;30.298;2023-08-06T05:20:23;1020.4;;;25.2;63.1
57799;BME280;43626;53.866;30.298;2023-08-06T05:26:01;1020.3;;;25.2;63.1
57799;BME280;43626;53.866;30.298;2023-08-06T05:30:51;1020.3;;;25.3;62.9
57799;BME280;43626;53.866;30.298;2023-08-06T05:35:33;1020.2;;;25.3;62.3
57799;BME280;43626;53.866;30.298;2023-08-06T05:40:41;1020.2;;;25.4;62
57799;BME280;43626;53.866;30.298;2023-08-06T05:45:51;1020.2;;;25.5;61.3
57799;BME280;43626;53.866;30.298;2023-08-06T05:50:37;1020.2;;;25.6;61.3
57799;BME280;43626;53.866;30.298;2023-08-06T05:55:29;1020.2;;;25.7;61.1
57799;BME280;43626;53.866;30.298;2023-08-06T06:00:51;1020.1;;;25.8;61.2
57799;BME280;43626;53.866;30.298;2023-08-06T06:05:51;1020.1;;;25.9;60.9
57799;BME280;43626;53.866;30.298;2023-08-06T06:11:01;1020;;;26;60.4
57799;BME280;43626;53.866;30.298;2023-08-06T06:15:41;1020;;;26.1;59.5
57799;BME280;43626;53.866;30.298;2023-08-06T06:20:41;1020;;;26.3;59.3
57799;BME280;43626;53.866;30.298;2023-08-06T06:25:23;1019.9;;;26.4;58.6
57799;BME280;43626;53.866;30.298;2023-08-06T06:31:01;1019.9;;;26.6;58.6
57799;BME280;43626;53.866;30.298;2023-08-06T06:35:51;1019.9;;;26.7;58.1
57799;BME280;43626;53.866;30.298;2023-08-06T06:40:54;1019.9;;;26.8;57.8
57799;BME280;43626;53.866;30.298;2023-08-06T06:46:01;1019.9;;;26.9;57.5
57799;BME280;43626;53.866;30.298;2023-08-06T06:50:47;1019.8;;;27.1;57.6
57799;BME280;43626;53.866;30.298;2023-08-06T06:55:29;1019.8;;;27.1;57.1
57799;BME280;43626;53.866;30.298;2023-08-06T07:00:23;1019.7;;;27.2;56.4
57799;BME280;43626;53.866;30.298;2023-08-06T07:06:01;1019.6;;;27.3;55.7
57799;BME280;43626;53.866;30.298;2023-08-06T07:10:47;1019.6;;;27.4;55
57799;BME280;43626;53.866;30.298;2023-08-06T07:16:01;1019.6;;;27.6;54.5
57799;BME280;43626;53.866;30.298;2023-08-06T07:21:01;1019.6;;;27.7;53.2
57799;BME280;43626;53.866;30.298;2023-08-06T07:25:43;1019.6;;;27.8;53
57799;BME280;43626;53.866;30.298;2023-08-06T07:30:47;1019.6;;;28;53.2
57799;BME280;43626;53.866;30.298;2023-08-06T07:35:51;1019.5;;;28.1;52.4
57799;BME280;43626;53.866;30.298;2023-08-06T07:41:01;1019.5;;;28.2;52.3
57799;BME280;43626;53.866;30.298;2023-08-06T07:45:47;1019.4;;;28.3;51.9
57799;BME280;43626;53.866;30.298;2023-08-06T07:50:23;1019.4;;;28.5;51.5
57799;BME280;43626;53.866;30.298;2023-08-06T07:56:01;1019.4;;;28.6;51
57799;BME280;43626;53.866;30.298;2023-08-06T08:00:51;1019.3;;;28.7;49.6
57799;BME280;43626;53.866;30.298;2023-08-06T08:05:23;1019.3;;;28.8;49
57799;BME280;43626;53.866;30.298;2023-08-06T08:10:23;1019.2;;;28.9;48.7
57799;BME280;43626;53.866;30.298;2023-08-06T08:15:47;1019.2;;;29.1;48.5
57799;BME280;43626;53.866;30.298;2023-08-06T08:20:47;1019.1;;;29.2;47.8
57799;BME280;43626;53.866;30.298;2023-08-06T08:25:33;1019.1;;;29.3;47.4
57799;BME280;43626;53.866;30.298;2023-08-06T08:30:23;1019;;;29.5;46.9
57799;BME280;43626;53.866;30.298;2023-08-06T08:35:23;1019;;;29.5;46.1
57799;BME280;43626;53.866;30.298;2023-08-06T08:40:31;1019;;;29.6;46.1
57799;BME280;43626;53.866;30.298;2023-08-06T08:45:23;1018.9;;;29.7;46
57799;BME280;43626;53.866;30.298;2023-08-06T08:50:31;1018.9;;;29.9;45.4
57799;BME280;43626;53.866;30.298;2023-08-06T08:55:48;1018.8;;;29.9;44.5
57799;BME280;43626;53.866;30.298;2023-08-06T09:01:01;1018.8;;;30;44.5
57799;BME280;43626;53.866;30.298;2023-08-06T09:05:51;1018.7;;;30;43.8
57799;BME280;43626;53.866;30.298;2023-08-06T09:10:23;1018.7;;;30.1;44
57799;BME280;43626;53.866;30.298;2023-08-06T09:15:47;1018.6;;;30.2;43
57799;BME280;43626;53.866;30.298;2023-08-06T09:20:37;1018.6;;;30.3;42.8
57799;BME280;43626;53.866;30.298;2023-08-06T09:25:23;1018.6;;;30.3;42.8
57799;BME280;43626;53.866;30.298;2023-08-06T09:30:52;1018.5;;;30.4;42.8
57799;BME280;43626;53.866;30.298;2023-08-06T09:36:06;1018.4;;;30.5;42.7
57799;BME280;43626;53.866;30.298;2023-08-06T09:40:29;1018.4;;;30.5;42.3
57799;BME280;43626;53.866;30.298;2023-08-06T09:45:41;1018.3;;;30.5;41.6
57799;BME280;43626;53.866;30.298;2023-08-06T09:51:01;1018.3;;;30.6;41.2
57799;BME280;43626;53.866;30.298;2023-08-06T09:55:51;1018.2;;;30.8;40.8
57799;BME280;43626;53.866;30.298;2023-08-06T10:00:37;1018.1;;;30.9;41
57799;BME280;43626;53.866;30.298;2023-08-06T10:05:35;1018.1;;;30.8;41.2
57799;BME280;43626;53.866;30.298;2023-08-06T10:11:02;1018.1;;;31;40.6
57799;BME280;43626;53.866;30.298;2023-08-06T10:15:30;1018;;;31;40.7
57799;BME280;43626;53.866;30.298;2023-08-06T10:20:23;1018;;;31.1;40.7
57799;BME280;43626;53.866;30.298;2023-08-06T10:25:53;1018;;;31.2;40.4
57799;BME280;43626;53.866;30.298;2023-08-06T10:30:51;1017.9;;;31.3;40
57799;BME280;43626;53.866;30.298;2023-08-06T10:36:01;1017.9;;;31.3;39.6
57799;BME280;43626;53.866;30.298;2023-08-06T10:40:29;1017.9;;;31.3;39.5
57799;BME280;43626;53.866;30.298;2023-08-06T10:45:29;1017.8;;;31.2;39.6
57799;BME280;43626;53.866;30.298;2023-08-06T10:50:29;1017.7;;;31.2;39.8
57799;BME280;43626;53.866;30.298;2023-08-06T10:56:01;1017.7;;;31.4;39.8
57799;BME280;43626;53.866;30.298;2023-08-06T11:00:51;1017.7;;;31.5;38.1
57799;BME280;43626;53.866;30.298;2023-08-06T11:05:51;1017.6;;;31.5;37.9
57799;BME280;43626;53.866;30.298;2023-08-06T11:11:08;1017.6;;;31.5;38.2
57799;BME280;43626;53.866;30.298;2023-08-06T11:15:51;1017.5;;;31.5;38
57799;BME280;43626;53.866;30.298;2023-08-06T11:20:29;1017.5;;;31.6;38.2
57799;BME280;43626;53.866;30.298;2023-08-06T11:25:53;1017.5;;;31.8;38.5
57799;BME280;43626;53.866;30.298;2023-08-06T11:31:01;1017.4;;;31.9;38.5
57799;BME280;43626;53.866;30.298;2023-08-06T11:36:01;1017.4;;;32;38
57799;BME280;43626;53.866;30.298;2023-08-06T11:41:01;1017.3;;;32.1;37.6
57799;BME280;43626;53.866;30.298;2023-08-06T11:46:03;1017.3;;;32.1;37.8
57799;BME280;43626;53.866;30.298;2023-08-06T11:50:54;1017.2;;;32.1;37.3
57799;BME280;43626;53.866;30.298;2023-08-06T11:55:39;1017.1;;;32.1;37.6
57799;BME280;43626;53.866;30.298;2023-08-06T12:00:53;1017.1;;;32.2;37.6
57799;BME280;43626;53.866;30.298;2023-08-06T12:06:03;1017;;;32.2;37.3
57799;BME280;43626;53.866;30.298;2023-08-06T12:10:47;1016.9;;;32.3;37.3
57799;BME280;43626;53.866;30.298;2023-08-06T12:15:37;1016.9;;;32.3;37.4
57799;BME280;43626;53.866;30.298;2023-08-06T12:21:03;1016.9;;;32.3;37.4
57799;BME280;43626;53.866;30.298;2023-08-06T12:25:23;1016.8;;;32.4;37.2
57799;BME280;43626;53.866;30.298;2023-08-06T12:30:37;1016.7;;;32.4;36.8
57799;BME280;43626;53.866;30.298;2023-08-06T12:35:23;1016.6;;;32.4;36.4
57799;BME280;43626;53.866;30.298;2023-08-06T12:40:47;1016.5;;;32.4;36.8
57799;BME280;43626;53.866;30.298;2023-08-06T12:45:33;1016.5;;;32.5;35.8
57799;BME280;43626;53.866;30.298;2023-08-06T12:50:53;1016.4;;;32.4;36.3
57799;BME280;43626;53.866;30.298;2023-08-06T12:55:29;1016.4;;;32.5;36.5
57799;BME280;43626;53.866;30.298;2023-08-06T13:00:23;1016.3;;;32.4;36.1
57799;BME280;43626;53.866;30.298;2023-08-06T13:05:29;1016.2;;;32.4;36.3
57799;BME280;43626;53.866;30.298;2023-08-06T13:10:37;1016.1;;;32.6;36.2
57799;BME280;43626;53.866;30.298;2023-08-06T13:15:37;1016;;;32.6;35.9
57799;BME280;43626;53.866;30.298;2023-08-06T13:20:47;1016;;;32.6;35.3
57799;BME280;43626;53.866;30.298;2023-08-06T13:26:03;1015.9;;;32.6;34.9
57799;BME280;43626;53.866;30.298;2023-08-06T13:30:27;1015.8;;;32.6;34.3
57799;BME280;43626;53.866;30.298;2023-08-06T13:35:23;1015.8;;;32.6;34.5
57799;BME280;43626;53.866;30.298;2023-08-06T13:41:03;1015.7;;;32.7;33.6
57799;BME280;43626;53.866;30.298;2023-08-06T13:45:37;1015.6;;;32.7;33.8
57799;BME280;43626;53.866;30.298;2023-08-06T13:50:37;1015.6;;;32.7;34.1
57799;BME280;43626;53.866;30.298;2023-08-06T13:55:37;1015.6;;;32.8;34.5
57799;BME280;43626;53.866;30.298;2023-08-06T14:00:53;1015.5;;;32.9;34.5
57799;BME280;43626;53.866;30.298;2023-08-06T14:05:29;1015.4;;;32.9;34.9
57799;BME280;43626;53.866;30.298;2023-08-06T14:10:23;1015.4;;;32.8;34.7
57799;BME280;43626;53.866;30.298;2023-08-06T14:16:03;1015.3;;;32.8;34.7
57799;BME280;43626;53.866;30.298;2023-08-06T14:20:53;1015.3;;;32.8;34.2
57799;BME280;43626;53.866;30.298;2023-08-06T14:25:39;1015.2;;;32.8;34.1
57799;BME280;43626;53.866;30.298;2023-08-06T14:30:43;1015.1;;;32.7;34.2
57799;BME280;43626;53.866;30.298;2023-08-06T14:36:03;1015;;;32.7;34.6
57799;BME280;43626;53.866;30.298;2023-08-06T14:40:29;1015;;;32.7;35.1
57799;BME280;43626;53.866;30.298;2023-08-06T14:45:37;1014.9;;;32.7;35.2
57799;BME280;43626;53.866;30.298;2023-08-06T14:50:53;1014.8;;;32.7;35.3
57799;BME280;43626;53.866;30.298;2023-08-06T14:56:03;1014.7;;;32.7;35.3
57799;BME280;43626;53.866;30.298;2023-08-06T15:01:03;1014.7;;;32.7;35.2
57799;BME280;43626;53.866;30.298;2023-08-06T15:05:43;1014.6;;;32.7;35
57799;BME280;43626;53.866;30.298;2023-08-06T15:10:23;1014.5;;;32.7;35.1
57799;BME280;43626;53.866;30.298;2023-08-06T15:15:23;1014.5;;;32.7;35.2
57799;BME280;43626;53.866;30.298;2023-08-06T15:21:03;1014.5;;;32.7;35.8
57799;BME280;43626;53.866;30.298;2023-08-06T15:25:53;1014.5;;;32.8;36.4
57799;BME280;43626;53.866;30.298;2023-08-06T15:30:53;1014.5;;;32.8;36.4
57799;BME280;43626;53.866;30.298;2023-08-06T15:36:01;1014.5;;;32.8;36.5
57799;BME280;43626;53.866;30.298;2023-08-06T15:40:25;1014.5;;;32.8;36.7
57799;BME280;43626;53.866;30.298;2023-08-06T15:45:23;1014.5;;;32.9;36.7
57799;BME280;43626;53.866;30.298;2023-08-06T15:50:45;1014.5;;;32.9;36.8
57799;BME280;43626;53.866;30.298;2023-08-06T15:55:47;1014.5;;;32.9;36.9
57799;BME280;43626;53.866;30.298;2023-08-06T16:01:03;1014.5;;;32.8;36.8
57799;BME280;43626;53.866;30.298;2023-08-06T16:06:03;1014.5;;;32.7;37.2
57799;BME280;43626;53.866;30.298;2023-08-06T16:11:03;1014.5;;;32.7;38
57799;BME280;43626;53.866;30.298;2023-08-06T16:15:53;1014.5;;;32.6;38
57799;BME280;43626;53.866;30.298;2023-08-06T16:20:47;1014.5;;;32.7;38
57799;BME280;43626;53.866;30.298;2023-08-06T16:25:53;1014.5;;;32.7;37.5
57799;BME280;43626;53.866;30.298;2023-08-06T16:31:03;1014.6;;;32.6;37.7
57799;BME280;43626;53.866;30.298;2023-08-06T16:35:47;1014.6;;;32.6;37.7
57799;BME280;43626;53.866;30.298;2023-08-06T16:40:23;1014.6;;;32.4;37.9
57799;BME280;43626;53.866;30.298;2023-08-06T16:46:03;1014.6;;;32;38.3
57799;BME280;43626;53.866;30.298;2023-08-06T16:50:47;1014.6;;;31.7;38.8
57799;BME280;43626;53.866;30.298;2023-08-06T16:55:29;1014.6;;;31.4;39.3
57799;BME280;43626;53.866;30.298;2023-08-06T17:00:33;1014.6;;;31;40.2
57799;BME280;43626;53.866;30.298;2023-08-06T17:05:31;1014.6;;;30.7;41
57799;BME280;43626;53.866;30.298;2023-08-06T17:10:41;1014.5;;;30.5;41.4
57799;BME280;43626;53.866;30.298;2023-08-06T17:15:25;1014.4;;;30.2;41.9
57799;BME280;43626;53.866;30.298;2023-08-06T17:21:03;1014.4;;;30.3;42.2
57799;BME280;43626;53.866;30.298;2023-08-06T17:25:31;1014.4;;;31;40.8
57799;BME280;43626;53.866;30.298;2023-08-06T17:30:31;1014.4;;;31.1;40.4
57799;BME280;43626;53.866;30.298;2023-08-06T17:35:39;1014.4;;;30.5;41.3
57799;BME280;43626;53.866;30.298;2023-08-06T17:40:31;1014.3;;;30;42
57799;BME280;43626;53.866;30.298;2023-08-06T17:45:53;1014.3;;;29.7;42.6
57799;BME280;43626;53.866;30.298;2023-08-06T17:51:03;1014.3;;;29.5;43
57799;BME280;43626;53.866;30.298;2023-08-06T17:55:30;1014.3;;;29.3;43.7
57799;BME280;43626;53.866;30.298;2023-08-06T18:00:23;1014.2;;;29.1;44.4
57799;BME280;43626;53.866;30.298;2023-08-06T18:06:03;1014.1;;;28.9;44.9
57799;BME280;43626;53.866;30.298;2023-08-06T18:10:47;1014.1;;;28.8;45.3
57799;BME280;43626;53.866;30.298;2023-08-06T18:15:23;1014.1;;;28.7;45.7
57799;BME280;43626;53.866;30.298;2023-08-06T18:20:47;1014;;;28.6;45.9
57799;BME280;43626;53.866;30.298;2023-08-06T18:25:53;1014;;;28.5;46
57799;BME280;43626;53.866;30.298;2023-08-06T18:30:23;1014;;;28.4;46.2
57799;BME280;43626;53.866;30.298;2023-08-06T18:35:23;1013.9;;;28.3;46.4
57799;BME280;43626;53.866;30.298;2023-08-06T18:41:03;1014;;;28.2;46.7
57799;BME280;43626;53.866;30.298;2023-08-06T18:45:47;1013.9;;;28.1;46.9
57799;BME280;43626;53.866;30.298;2023-08-06T18:50:47;1013.9;;;28.1;47.1
57799;BME280;43626;53.866;30.298;2023-08-06T18:55:45;1013.9;;;28;47.7
57799;BME280;43626;53.866;30.298;2023-08-06T19:01:01;1013.9;;;27.9;48.1
57799;BME280;43626;53.866;30.298;2023-08-06T19:05:25;1013.9;;;27.8;48.4
57799;BME280;43626;53.866;30.298;2023-08-06T19:10:23;1013.9;;;27.8;48.8
57799;BME280;43626;53.866;30.298;2023-08-06T19:15:53;1013.9;;;27.7;49
57799;BME280;43626;53.866;30.298;2023-08-06T19:20:54;1013.8;;;27.7;49.1
57799;BME280;43626;53.866;30.298;2023-08-06T19:26:01;1013.8;;;27.7;49.1
57799;BME280;43626;53.866;30.298;2023-08-06T19:30:23;1013.8;;;27.6;49.2
57799;BME280;43626;53.866;30.298;2023-08-06T19:35:29;1013.9;;;27.6;49.3
57799;BME280;43626;53.866;30.298;2023-08-06T19:40:29;1013.8;;;27.5;49.5
57799;BME280;43626;53.866;30.298;2023-08-06T19:46:03;1013.7;;;27.5;49.5
57799;BME280;43626;53.866;30.298;2023-08-06T19:50:54;1013.7;;;27.4;49.9
57799;BME280;43626;53.866;30.298;2023-08-06T19:55:45;1013.6;;;27.4;50.3
57799;BME280;43626;53.866;30.298;2023-08-06T20:01:03;1013.6;;;27.3;50.5
57799;BME280;43626;53.866;30.298;2023-08-06T20:05:53;1013.6;;;27.2;50.8
57799;BME280;43626;53.866;30.298;2023-08-06T20:10:29;1013.5;;;27.2;50.9
57799;BME280;43626;53.866;30.298;2023-08-06T20:15:35;1013.5;;;27.2;51.2
57799;BME280;43626;53.866;30.298;2023-08-06T20:21:01;1013.5;;;27.1;51.1
57799;BME280;43626;53.866;30.298;2023-08-06T20:26:03;1013.4;;;27.1;51.1
57799;BME280;43626;53.866;30.298;2023-08-06T20:31:03;1013.4;;;27.1;51.2
57799;BME280;43626;53.866;30.298;2023-08-06T20:36:03;1013.3;;;27;51.3
57799;BME280;43626;53.866;30.298;2023-08-06T20:40:53;1013.2;;;27;51.4
57799;BME280;43626;53.866;30.298;2023-08-06T20:45:29;1013.2;;;27;51.7
57799;BME280;43626;53.866;30.298;2023-08-06T20:50:53;1013.2;;;26.9;52.1
57799;BME280;43626;53.866;30.298;2023-08-06T20:56:04;1013.1;;;26.8;52.3
57799;BME280;43626;53.866;30.298;2023-08-06T21:00:47;1013.1;;;26.8;52.5
57799;BME280;43626;53.866;30.298;2023-08-06T21:05:29;1013;;;26.8;52.7
57799;BME280;43626;53.866;30.298;2023-08-06T21:11:03;1013;;;26.7;52.9
57799;BME280;43626;53.866;30.298;2023-08-06T21:15:54;1013;;;26.7;52.8
57799;BME280;43626;53.866;30.298;2023-08-06T21:20:23;1013;;;26.7;52.8
57799;BME280;43626;53.866;30.298;2023-08-06T21:25:37;1012.9;;;26.7;52.9
57799;BME280;43626;53.866;30.298;2023-08-06T21:30:37;1012.9;;;26.6;53
57799;BME280;43626;53.866;30.298;2023-08-06T21:35:31;1012.8;;;26.6;53
57799;BME280;43626;53.866;30.298;2023-08-06T21:41:04;1012.8;;;26.6;53.3
57799;BME280;43626;53.866;30.298;2023-08-06T21:45:43;1012.8;;;26.5;53.6
57799;BME280;43626;53.866;30.298;2023-08-06T21:50:23;1012.8;;;26.5;53.9
57799;BME280;43626;53.866;30.298;2023-08-06T21:55:47;1012.7;;;26.4;54.1
57799;BME280;43626;53.866;30.298;2023-08-06T22:00:31;1012.7;;;26.4;54.3
57799;BME280;43626;53.866;30.298;2023-08-06T22:05:37;1012.7;;;26.4;54.4
57799;BME280;43626;53.866;30.298;2023-08-06T22:10:49;1012.7;;;26.3;54.3
57799;BME280;43626;53.866;30.298;2023-08-06T22:16:01;1012.7;;;26.3;54.4
57799;BME280;43626;53.866;30.298;2023-08-06T22:20:45;1012.7;;;26.3;54.5
57799;BME280;43626;53.866;30.298;2023-08-06T22:25:21;1012.6;;;26.3;54.6
57799;BME280;43626;53.866;30.298;2023-08-06T22:31:02;1012.6;;;26.3;54.6
57799;BME280;43626;53.866;30.298;2023-08-06T22:35:21;1012.5;;;26.2;54.7
57799;BME280;43626;53.866;30.298;2023-08-06T22:40:35;1012.5;;;26.2;55
57799;BME280;43626;53.866;30.298;2023-08-06T22:45:21;1012.4;;;26.1;55.3
57799;BME280;43626;53.866;30.298;2023-08-06T22:50:51;1012.5;;;26.1;55.4
57799;BME280;43626;53.866;30.298;2023-08-06T22:55:21;1012.5;;;26.1;55.5
57799;BME280;43626;53.866;30.298;2023-08-06T23:00:41;1012.5;;;26.1;55.5
57799;BME280;43626;53.866;30.298;2023-08-06T23:06:01;1012.5;;;26.1;55.3
57799;BME280;43626;53.866;30.298;2023-08-06T23:10:51;1012.5;;;26.1;55.3
57799;BME280;43626;53.866;30.298;2023-08-06T23:15:29;1012.4;;;26.1;55.3
57799;BME280;43626;53.866;30.298;2023-08-06T23:20:27;1012.4;;;26;55.3
57799;BME280;43626;53.866;30.298;2023-08-06T23:26:01;1012.3;;;26;55.2
57799;BME280;43626;53.866;30.298;2023-08-06T23:30:21;1012.3;;;26;55.2
57799;BME280;43626;53.866;30.298;2023-08-06T23:35:21;1012.2;;;25.9;55.4
57799;BME280;43626;53.866;30.298;2023-08-06T23:40:37;1012.2;;;25.9;55.5
57799;BME280;43626;53.866;30.298;2023-08-06T23:45:51;1012.1;;;25.8;55.5
57799;BME280;43626;53.866;30.298;2023-08-06T23:51:01;1012.1;;;25.8;55.6
57799;BME280;43626;53.866;30.298;2023-08-06T23:55:41;1012.1;;;25.7;55.7
